Página principal
METAR-TAF:

METAR-TAF

Aeroportos :

Aeroporto Internacional Hato

Curaçao, Antilhas Neerlandesas

latitude: 12-12N, longitude: 068-58W, altura: 9 m

Observação actual do tempo

O boletim foi feito há 36 minutos, às 06:00 UTC
Vento 12 kt de es-sudeste
Temperatura 28°C
Humidade 79%
Pressão 1010 hPa
Visibilidade 10 km ou mais
Nuvens dispersasa uma altura de 2600 ft

METAR: TNCC 170600Z AUTO 11012KT 9999 SCT026 28/24 Q1010 NOSIG

Hora: 02:36 (06:36 UTC)

Previsão

O boletim foi feito há 3 horas e 6 minutos, às 03:30 UTC
Previsão válida de 17 às 06 UTC a 18 às 06 UTC
Vento 11 kt de este
Visibilidade 10 km ou mais
Nuvens dispersasa uma altura de 1800 ft
Probabilidade 30% :
Temporariamente
de 17 às 06 UTC a 17 às 16 UTC
Visibilidade: 5000 m
Nuvens fragmentadasa uma altura de 1500 ft
aguaceiros de chuva

TAF: TNCC 170330Z 1706/1806 10011KT 9999 SCT018 PROB30 TEMPO 1706/1716 5000 SHRA BKN015

Observações e previsões do tempo de mais de 4000 aeroportos (mensagens METAR e TAF).

As estações disponíveis são os pontos amarelos e vermelhos sobre o mapa.

Mova o rato sobre o mapa para ver o nome da estação.

Depois clique no ponto para visualizar as observações e previsões meteorológicas.

Para alterar o mapa : clique nos botões verdes com uma cruz preta para aumentar o zoom; no botão verde com uma pitada de zoom; ou nas setas verdes para mapas adjacentes.


METAR-TAF: